Time;durP1;ratioP1;P1;durP2;ratioP2;P2;SDS_P1;SDS_P2;PMS_P1;PMS_P2;Temp;Humidity;BMP_temperature;BMP_pressure;BME280_temperature;BME280_humidity;BME280_pressure;Samples;Min_cycle;Max_cycle;Signal;HPM_P1;HPM_P2
2023/07/05 00:02:26;;;;;;;10.40;4.53;;;19.50;1.00;;;;;;5049658;28;20392;-72
2023/07/05 00:04:52;;;;;;;11.15;4.70;;;19.60;1.00;;;;;;5048393;28;20400;-72
2023/07/05 00:07:17;;;;;;;10.60;4.20;;;19.60;1.00;;;;;;5048619;28;20397;-72
2023/07/05 00:09:43;;;;;;;10.30;3.80;;;19.50;1.00;;;;;;5049521;28;20463;-72
2023/07/05 00:12:09;;;;;;;10.82;4.00;;;19.60;1.00;;;;;;5048641;28;20396;-72
2023/07/05 00:14:34;;;;;;;11.68;4.43;;;19.60;1.00;;;;;;5046695;28;20408;-71
2023/07/05 00:17:00;;;;;;;11.82;3.90;;;19.60;1.00;;;;;;5049221;28;20488;-71
2023/07/05 00:19:25;;;;;;;11.00;3.80;;;19.70;1.00;;;;;;5049461;28;20370;-71
2023/07/05 00:21:51;;;;;;;13.20;3.63;;;19.60;1.00;;;;;;5050028;28;20809;-71
2023/07/05 00:24:17;;;;;;;11.73;4.37;;;19.40;44.60;;;;;;5048860;28;20400;-71
2023/07/05 00:26:42;;;;;;;10.73;3.87;;;19.30;99.90;;;;;;5049501;28;20389;-72
2023/07/05 00:29:08;;;;;;;12.70;4.17;;;19.20;99.90;;;;;;5049601;28;20413;-71
2023/07/05 00:31:33;;;;;;;12.68;3.75;;;19.10;99.90;;;;;;5049073;28;20393;-71
2023/07/05 00:33:59;;;;;;;12.35;4.47;;;19.00;99.90;;;;;;5047916;28;20477;-71
2023/07/05 00:36:24;;;;;;;11.18;4.35;;;19.10;99.90;;;;;;5049223;28;20397;-71
2023/07/05 00:38:50;;;;;;;10.02;3.92;;;19.10;99.90;;;;;;5049953;28;20447;-71
2023/07/05 00:41:17;;;;;;;10.10;3.83;;;19.10;99.90;;;;;;5049647;28;20843;-72
2023/07/05 00:43:48;;;;;;;11.68;4.05;;;19.20;99.90;;;;;;5050269;28;20397;-71
2023/07/05 00:46:24;;;;;;;11.48;3.78;;;19.10;99.90;;;;;;5050104;28;20381;-71
2023/07/05 00:48:59;;;;;;;9.65;3.70;;;19.00;1.00;;;;;;5050895;28;20436;-72
2023/07/05 00:51:40;;;;;;;9.38;3.75;;;18.90;1.00;;;;;;5050900;28;20921;-72
2023/07/05 00:54:06;;;;;;;13.80;3.58;;;19.00;1.00;;;;;;5059529;28;20408;-72
2023/07/05 00:56:46;;;;;;;9.75;3.05;;;19.20;1.00;;;;;;5070535;28;20398;-71
2023/07/05 00:59:14;;;;;;;9.70;3.47;;;19.30;99.90;;;;;;5069448;28;20545;-71
2023/07/05 01:01:40;;;;;;;8.20;3.00;;;19.40;99.90;;;;;;5066174;28;20436;-71
2023/07/05 01:04:06;;;;;;;8.38;2.90;;;19.50;99.90;;;;;;5052993;28;20382;-71
2023/07/05 01:06:32;;;;;;;9.80;3.03;;;19.60;99.90;;;;;;5054628;28;20385;-71
2023/07/05 01:08:58;;;;;;;9.18;3.40;;;19.60;99.90;;;;;;5055292;28;20421;-71
2023/07/05 01:11:37;;;;;;;8.77;3.00;;;19.60;99.90;;;;;;5055778;28;20386;-71
2023/07/05 01:14:14;;;;;;;9.65;3.00;;;19.60;99.90;;;;;;5055284;28;20409;-71
2023/07/05 01:16:52;;;;;;;7.60;2.30;;;19.50;99.90;;;;;;5056549;28;20754;-71
2023/07/05 01:19:20;;;;;;;7.82;2.60;;;19.60;99.90;;;;;;5053093;28;20397;-71
2023/07/05 01:21:54;;;;;;;6.72;2.60;;;19.70;99.90;;;;;;5054495;28;20909;-71
2023/07/05 01:24:58;;;;;;;6.90;2.10;;;19.80;99.90;;;;;;5050017;28;20444;-71
2023/07/05 01:27:59;;;;;;;8.60;2.20;;;20.00;69.80;;;;;;5053415;28;20392;-71
2023/07/05 01:30:41;;;;;;;6.70;2.00;;;20.00;26.10;;;;;;5016708;28;20425;-71
2023/07/05 01:33:19;;;;;;;7.22;2.13;;;20.10;1.00;;;;;;5055553;28;20440;-71
2023/07/05 01:35:49;;;;;;;8.30;2.00;;;20.20;1.00;;;;;;5055365;28;20393;-71
2023/07/05 01:38:15;;;;;;;7.93;2.03;;;20.40;1.00;;;;;;5054884;28;20466;-71
2023/07/05 01:44:03;;;;;;;6.38;1.70;;;20.40;1.00;;;;;;5068527;28;20415;-71
2023/07/05 01:47:09;;;;;;;6.57;1.50;;;20.50;1.00;;;;;;5051277;28;20407;-72
2023/07/05 01:49:53;;;;;;;5.63;1.60;;;20.40;1.00;;;;;;5060106;28;20885;-71
2023/07/05 01:52:43;;;;;;;7.10;1.80;;;20.30;1.00;;;;;;5070102;28;20913;-71
2023/07/05 01:55:26;;;;;;;6.18;1.42;;;20.40;1.00;;;;;;5071270;28;20395;-71
2023/07/05 01:58:02;;;;;;;7.38;1.67;;;20.30;1.00;;;;;;5071576;28;20729;-71
2023/07/05 02:00:30;;;;;;;5.87;1.70;;;20.30;1.00;;;;;;5071663;28;20475;-72
2023/07/05 02:03:01;;;;;;;6.10;1.70;;;20.30;1.00;;;;;;5069862;28;20387;-72
2023/07/05 02:05:29;;;;;;;6.00;1.60;;;20.40;1.00;;;;;;5054236;28;20406;-72
2023/07/05 02:07:56;;;;;;;7.00;2.15;;;20.30;1.00;;;;;;5065976;28;20392;-71
2023/07/05 02:10:21;;;;;;;6.70;2.10;;;20.20;1.00;;;;;;5071484;28;20695;-71
2023/07/05 02:12:47;;;;;;;9.65;2.03;;;20.10;91.60;;;;;;5071203;28;20395;-71
2023/07/05 02:15:15;;;;;;;6.67;1.73;;;20.00;99.90;;;;;;5071364;28;20888;-72
2023/07/05 02:17:40;;;;;;;6.20;1.53;;;20.00;99.90;;;;;;5071123;28;20533;-72
2023/07/05 02:20:07;;;;;;;7.53;1.90;;;20.10;99.90;;;;;;5070890;28;20467;-71
2023/07/05 02:22:32;;;;;;;6.35;1.83;;;20.00;99.90;;;;;;5071267;28;20411;-72
2023/07/05 02:24:58;;;;;;;6.70;1.60;;;20.10;1.00;;;;;;5070969;28;20423;-72
2023/07/05 02:27:23;;;;;;;6.70;1.60;;;20.10;99.90;;;;;;5071155;28;20380;-72
2023/07/05 02:29:50;;;;;;;8.23;1.80;;;19.90;97.70;;;;;;5070699;28;20818;-71
2023/07/05 02:32:15;;;;;;;7.45;1.98;;;19.70;99.90;;;;;;5067740;28;21501;-72
2023/07/05 02:34:42;;;;;;;5.55;1.60;;;19.40;99.90;;;;;;5070686;28;20440;-72
2023/07/05 02:37:09;;;;;;;6.70;1.70;;;19.30;99.90;;;;;;5070606;28;20403;-71
2023/07/05 02:39:34;;;;;;;6.40;1.90;;;19.20;47.30;;;;;;5070498;28;20396;-72
2023/07/05 02:42:00;;;;;;;8.00;2.00;;;19.10;38.80;;;;;;5067312;28;20443;-72
2023/07/05 02:44:25;;;;;;;6.70;2.00;;;19.00;1.00;;;;;;5051889;28;20485;-72
2023/07/05 02:46:51;;;;;;;6.50;1.90;;;19.00;1.00;;;;;;5051295;28;20389;-72
2023/07/05 02:49:16;;;;;;;6.17;1.73;;;19.00;52.00;;;;;;5051161;28;20478;-71
2023/07/05 02:51:42;;;;;;;6.70;2.20;;;19.00;99.90;;;;;;5051250;28;20524;-72
2023/07/05 02:54:08;;;;;;;5.90;1.70;;;19.00;91.80;;;;;;5050718;28;20480;-72
2023/07/05 02:56:34;;;;;;;7.28;1.73;;;19.00;99.90;;;;;;5050954;28;20389;-72
2023/07/05 02:58:59;;;;;;;8.10;2.20;;;19.00;99.90;;;;;;5050682;28;20382;-72
2023/07/05 03:01:25;;;;;;;5.93;1.87;;;19.00;99.90;;;;;;5051247;28;20406;-71
2023/07/05 03:03:51;;;;;;;8.03;2.00;;;19.10;99.90;;;;;;5051338;28;20425;-72
2023/07/05 03:06:17;;;;;;;6.60;1.88;;;19.00;99.90;;;;;;5051102;28;20727;-72
2023/07/05 03:08:42;;;;;;;5.83;1.80;;;18.90;99.90;;;;;;5051003;28;20469;-72
2023/07/05 03:11:08;;;;;;;7.00;2.00;;;18.90;99.90;;;;;;5051047;28;20798;-72
2023/07/05 03:13:34;;;;;;;5.80;1.67;;;18.80;99.90;;;;;;5051251;28;20396;-72
2023/07/05 03:16:00;;;;;;;7.28;1.77;;;18.80;99.90;;;;;;5051389;28;20421;-72
2023/07/05 03:18:27;;;;;;;5.82;1.80;;;18.80;99.90;;;;;;5051051;28;20382;-72
2023/07/05 03:20:53;;;;;;;5.57;1.83;;;18.80;99.90;;;;;;5051532;28;20390;-72
2023/07/05 03:23:19;;;;;;;7.93;1.80;;;18.80;99.90;;;;;;5050721;28;20404;-71
2023/07/05 03:26:07;;;;;;;7.20;1.70;;;18.70;99.90;;;;;;5050794;28;20385;-72
2023/07/05 03:28:33;;;;;;;5.50;1.70;;;18.70;99.90;;;;;;5050518;28;20402;-72
2023/07/05 03:31:00;;;;;;;6.72;1.65;;;18.70;99.90;;;;;;5051030;28;20480;-72
2023/07/05 03:33:28;;;;;;;5.67;1.50;;;18.60;99.90;;;;;;5053438;28;20397;-72
2023/07/05 03:36:03;;;;;;;6.80;1.52;;;18.60;99.90;;;;;;5055253;28;20394;-72
2023/07/05 03:38:29;;;;;;;5.10;1.20;;;18.50;1.00;;;;;;5050610;28;20441;-71
2023/07/05 03:40:57;;;;;;;5.05;1.23;;;18.40;1.00;;;;;;5049044;28;20401;-72
2023/07/05 03:43:24;;;;;;;6.57;1.20;;;18.40;1.00;;;;;;5043203;28;20478;-72
2023/07/05 03:45:51;;;;;;;6.85;1.75;;;18.40;1.00;;;;;;5047436;28;20398;-72
2023/07/05 03:48:17;;;;;;;4.80;1.00;;;18.30;1.00;;;;;;5049538;28;20420;-72
2023/07/05 03:50:42;;;;;;;5.80;1.33;;;18.40;1.00;;;;;;5049849;28;20831;-72
2023/07/05 03:53:08;;;;;;;7.28;1.30;;;18.30;1.00;;;;;;5049782;28;20389;-72
2023/07/05 03:55:36;;;;;;;12.60;2.00;;;18.30;1.00;;;;;;5049524;28;20431;-72
2023/07/05 03:58:02;;;;;;;4.80;1.30;;;18.40;1.00;;;;;;5049528;28;20420;-72
2023/07/05 04:00:27;;;;;;;6.50;1.63;;;18.40;1.00;;;;;;5049352;28;20897;-73
2023/07/05 04:02:53;;;;;;;6.30;1.70;;;18.40;1.00;;;;;;5049841;28;20450;-72
2023/07/05 04:05:19;;;;;;;5.15;1.40;;;18.40;1.00;;;;;;5049477;28;20401;-72
2023/07/05 04:07:44;;;;;;;5.40;1.50;;;18.50;1.00;;;;;;5049330;28;20401;-72
2023/07/05 04:10:11;;;;;;;6.63;2.00;;;18.50;1.00;;;;;;5047944;28;20981;-72
2023/07/05 04:12:36;;;;;;;4.90;1.10;;;18.50;1.00;;;;;;5049165;28;20740;-72
2023/07/05 04:15:02;;;;;;;5.23;1.43;;;18.40;1.00;;;;;;5050594;28;20408;-72
2023/07/05 04:17:31;;;;;;;5.47;1.40;;;18.50;1.00;;;;;;5050428;28;20420;-72
2023/07/05 04:19:57;;;;;;;6.00;1.52;;;18.60;1.00;;;;;;5049258;28;20415;-73
2023/07/05 04:22:23;;;;;;;10.40;1.77;;;18.70;99.90;;;;;;5049883;28;20401;-73
2023/07/05 04:24:48;;;;;;;6.30;1.70;;;18.70;99.90;;;;;;5048727;28;20408;-72
2023/07/05 04:27:15;;;;;;;5.30;1.23;;;18.70;99.90;;;;;;5049299;28;20482;-73
2023/07/05 04:29:41;;;;;;;6.43;1.67;;;18.80;99.90;;;;;;5048882;28;20550;-72
2023/07/05 04:32:07;;;;;;;5.68;1.60;;;18.80;99.90;;;;;;5049014;28;20484;-72
2023/07/05 04:34:33;;;;;;;5.80;1.70;;;18.90;99.90;;;;;;5048699;28;20386;-73
2023/07/05 04:36:59;;;;;;;6.90;2.08;;;19.00;99.90;;;;;;5048258;28;20395;-72
2023/07/05 04:39:24;;;;;;;8.20;1.50;;;19.00;99.90;;;;;;5049158;28;20480;-72
2023/07/05 04:41:50;;;;;;;9.30;1.90;;;19.00;99.90;;;;;;5050283;28;20393;-72
2023/07/05 04:44:15;;;;;;;5.87;1.40;;;19.00;99.90;;;;;;5068539;28;20407;-72
2023/07/05 04:46:41;;;;;;;6.20;1.45;;;19.00;99.90;;;;;;5068412;28;20396;-72
2023/07/05 04:49:06;;;;;;;6.68;1.67;;;19.00;99.90;;;;;;5068043;28;20431;-72
2023/07/05 04:51:32;;;;;;;5.95;1.45;;;19.00;99.90;;;;;;5068431;28;20398;-72
2023/07/05 04:53:58;;;;;;;6.23;1.53;;;18.90;99.90;;;;;;5068664;28;20855;-72
2023/07/05 04:56:24;;;;;;;5.50;1.50;;;18.90;99.90;;;;;;5068557;28;20383;-73
2023/07/05 04:58:49;;;;;;;5.15;1.30;;;19.00;99.90;;;;;;5068202;28;20445;-73
2023/07/05 05:01:19;;;;;;;5.80;1.50;;;19.10;99.90;;;;;;5068283;28;20400;-72
2023/07/05 05:03:44;;;;;;;5.60;1.40;;;19.00;99.90;;;;;;5067969;28;20421;-73
2023/07/05 05:06:10;;;;;;;5.40;1.60;;;19.00;99.90;;;;;;5068131;28;20385;-73
2023/07/05 05:08:36;;;;;;;6.45;1.95;;;19.10;99.90;;;;;;5068881;28;20411;-73
2023/07/05 05:11:04;;;;;;;5.60;1.40;;;19.40;99.90;;;;;;5066849;28;20491;-73
2023/07/05 05:13:31;;;;;;;6.40;1.50;;;20.10;99.90;;;;;;5064443;28;20738;-72
2023/07/05 05:15:57;;;;;;;5.75;1.60;;;20.50;99.90;;;;;;5068989;28;20474;-73
2023/07/05 05:18:27;;;;;;;5.55;1.70;;;20.20;99.90;;;;;;5067169;28;20423;-72
2023/07/05 05:20:54;;;;;;;5.20;1.48;;;19.90;99.90;;;;;;5052827;28;20398;-72
2023/07/05 05:23:20;;;;;;;5.15;1.20;;;20.00;1.00;;;;;;5068066;28;20384;-73
2023/07/05 05:25:46;;;;;;;6.15;1.60;;;20.60;1.00;;;;;;5068997;28;20387;-73
2023/07/05 05:28:14;;;;;;;5.70;1.50;;;21.70;90.60;;;;;;5065335;28;20419;-73
2023/07/05 05:30:41;;;;;;;6.10;1.70;;;21.80;99.90;;;;;;5067845;28;20415;-73
2023/07/05 05:33:06;;;;;;;6.18;1.55;;;21.60;1.00;;;;;;5068881;28;20438;-73
2023/07/05 05:35:34;;;;;;;8.82;1.50;;;21.30;99.90;;;;;;5067852;28;20403;-73
2023/07/05 05:38:00;;;;;;;6.00;1.40;;;21.00;99.90;;;;;;5062395;28;20901;-73
2023/07/05 05:40:26;;;;;;;6.45;1.45;;;21.10;1.00;;;;;;5061027;28;20413;-74
2023/07/05 05:42:51;;;;;;;6.57;1.40;;;21.30;1.00;;;;;;5058880;28;20431;-73
2023/07/05 05:45:17;;;;;;;6.15;1.60;;;21.10;1.00;;;;;;5054707;28;20412;-73
2023/07/05 05:47:43;;;;;;;5.35;1.48;;;20.90;99.90;;;;;;5057876;28;20403;-72
2023/07/05 05:50:09;;;;;;;6.03;1.33;;;21.00;99.90;;;;;;5048831;28;20421;-72
2023/07/05 05:52:35;;;;;;;6.35;1.60;;;21.10;1.00;;;;;;5044416;28;20431;-72
2023/07/05 05:55:02;;;;;;;5.55;1.40;;;21.00;1.00;;;;;;5056408;28;20403;-72
2023/07/05 05:57:29;;;;;;;5.60;1.40;;;21.00;1.00;;;;;;5055813;28;20397;-72
2023/07/05 05:59:55;;;;;;;6.18;1.40;;;21.20;1.00;;;;;;5056640;28;20409;-72
2023/07/05 06:02:20;;;;;;;5.87;1.30;;;21.70;1.00;;;;;;5049683;28;20507;-71
2023/07/05 06:04:46;;;;;;;6.57;1.60;;;22.30;1.00;;;;;;5059786;28;20527;-72
2023/07/05 06:07:11;;;;;;;6.32;1.27;;;22.40;1.00;;;;;;5042591;28;20435;-72
2023/07/05 06:09:47;;;;;;;6.32;1.77;;;21.80;99.90;;;;;;5067898;28;20426;-72
2023/07/05 06:12:13;;;;;;;6.60;1.52;;;21.20;1.00;;;;;;5054382;28;20402;-69
2023/07/05 06:14:39;;;;;;;9.77;1.60;;;20.80;25.20;;;;;;5064488;28;20384;-69
2023/07/05 06:17:05;;;;;;;6.97;1.90;;;20.00;1.00;;;;;;5067070;28;20446;-69
2023/07/05 06:19:31;;;;;;;5.25;1.35;;;19.50;1.00;;;;;;5067157;28;20399;-69
2023/07/05 06:21:57;;;;;;;5.60;1.30;;;19.20;1.00;;;;;;5067392;28;20418;-70
2023/07/05 06:24:23;;;;;;;5.50;1.50;;;19.10;1.00;;;;;;5068037;28;20408;-68
2023/07/05 06:26:48;;;;;;;5.30;1.40;;;19.10;1.00;;;;;;5067458;28;20386;-69
2023/07/05 06:29:14;;;;;;;5.80;1.40;;;19.00;1.00;;;;;;5066976;28;20782;-68
2023/07/05 06:31:41;;;;;;;7.30;1.30;;;18.90;1.00;;;;;;5063865;28;20961;-69
2023/07/05 06:34:06;;;;;;;6.00;0.93;;;18.60;1.00;;;;;;5064537;28;20449;-68
2023/07/05 06:36:32;;;;;;;5.10;1.30;;;18.10;1.00;;;;;;5066473;28;20403;-70
2023/07/05 06:38:58;;;;;;;5.30;1.20;;;17.90;4.00;;;;;;5071068;28;20392;-69
2023/07/05 06:41:23;;;;;;;4.90;0.90;;;18.10;1.00;;;;;;5071084;28;20383;-68
2023/07/05 06:43:49;;;;;;;6.70;1.60;;;18.10;1.00;;;;;;5070394;28;20400;-68
2023/07/05 06:46:14;;;;;;;5.38;1.50;;;17.90;1.20;;;;;;5070472;28;20501;-68
2023/07/05 06:48:40;;;;;;;4.90;1.30;;;17.90;15.30;;;;;;5070635;28;20471;-68
2023/07/05 06:51:05;;;;;;;6.10;1.40;;;18.00;16.20;;;;;;5070833;28;20395;-69
2023/07/05 06:53:31;;;;;;;5.17;1.27;;;18.00;1.00;;;;;;5071294;28;20399;-68
2023/07/05 06:55:56;;;;;;;7.60;1.50;;;18.10;2.70;;;;;;5070471;28;20402;-69
2023/07/05 06:58:22;;;;;;;7.10;1.43;;;18.20;1.00;;;;;;5071192;28;20752;-68
2023/07/05 07:00:49;;;;;;;5.60;1.27;;;18.00;1.00;;;;;;5071244;28;20384;-68
2023/07/05 07:03:16;;;;;;;5.10;1.20;;;18.10;1.00;;;;;;5070926;28;20403;-68
2023/07/05 07:05:54;;;;;;;5.32;1.45;;;18.00;18.10;;;;;;5070802;28;20732;-69
2023/07/05 07:08:20;;;;;;;6.47;1.63;;;18.10;29.20;;;;;;5053919;28;20384;-68
2023/07/05 07:10:46;;;;;;;6.20;1.20;;;18.10;21.90;;;;;;5070805;28;20411;-68
2023/07/05 07:13:13;;;;;;;4.70;1.30;;;18.20;28.80;;;;;;5070769;28;20939;-68
2023/07/05 07:15:39;;;;;;;4.80;1.45;;;18.30;21.40;;;;;;5068187;28;20400;-69
2023/07/05 07:18:05;;;;;;;4.93;1.40;;;18.50;7.00;;;;;;5069519;28;20411;-69
2023/07/05 07:20:31;;;;;;;8.67;1.70;;;18.60;8.30;;;;;;5068566;28;20915;-69
2023/07/05 07:22:57;;;;;;;5.90;1.40;;;18.80;22.60;;;;;;5067614;28;20394;-69
2023/07/05 07:25:22;;;;;;;5.40;1.40;;;18.80;1.00;;;;;;5069787;28;20396;-68
2023/07/05 07:27:48;;;;;;;6.33;1.40;;;18.70;1.00;;;;;;5050042;28;20401;-69
2023/07/05 07:30:14;;;;;;;4.23;0.93;;;18.80;1.00;;;;;;5050090;28;20491;-69
2023/07/05 07:32:39;;;;;;;4.97;1.23;;;19.00;1.00;;;;;;5050277;28;20393;-69
2023/07/05 07:35:05;;;;;;;5.00;1.30;;;19.00;1.00;;;;;;5049584;28;20385;-69
2023/07/05 07:37:32;;;;;;;6.70;1.50;;;19.00;1.00;;;;;;5050061;28;20385;-69
2023/07/05 07:39:57;;;;;;;5.20;1.10;;;19.00;1.00;;;;;;5050081;28;20481;-69
2023/07/05 07:42:23;;;;;;;4.93;1.30;;;18.80;1.00;;;;;;5050775;28;20455;-68
2023/07/05 07:44:48;;;;;;;5.47;1.60;;;19.50;1.00;;;;;;5049445;28;20386;-68
2023/07/05 07:47:14;;;;;;;6.63;1.50;;;20.20;99.90;;;;;;5050045;28;20446;-69
2023/07/05 07:49:39;;;;;;;5.97;1.10;;;20.80;1.00;;;;;;5049154;28;20460;-69
2023/07/05 07:52:07;;;;;;;6.50;1.30;;;20.30;16.30;;;;;;5048923;28;20474;-69
2023/07/05 07:54:33;;;;;;;6.95;1.38;;;19.90;1.00;;;;;;5048862;28;20370;-68
2023/07/05 07:56:59;;;;;;;5.80;1.60;;;19.10;99.90;;;;;;5048839;28;20381;-69
2023/07/05 07:59:24;;;;;;;5.90;1.50;;;19.10;1.00;;;;;;5048987;28;20900;-68
2023/07/05 08:01:50;;;;;;;5.57;1.20;;;19.20;99.90;;;;;;5048395;28;20995;-68
2023/07/05 08:04:17;;;;;;;5.60;1.50;;;19.50;99.90;;;;;;5049235;28;20409;-69
2023/07/05 08:06:48;;;;;;;6.05;1.67;;;20.80;1.00;;;;;;5049350;28;20394;-69
2023/07/05 08:09:16;;;;;;;7.18;1.58;;;22.10;1.00;;;;;;5049518;28;20865;-69
2023/07/05 08:11:41;;;;;;;6.82;1.50;;;22.10;99.90;;;;;;5049067;28;20389;-69
2023/07/05 08:14:08;;;;;;;7.00;1.60;;;21.10;99.90;;;;;;5049361;28;20378;-69
2023/07/05 08:16:34;;;;;;;7.60;1.70;;;20.30;99.90;;;;;;5049626;28;20385;-68
2023/07/05 08:19:00;;;;;;;6.90;1.70;;;19.70;1.00;;;;;;5049482;28;20458;-69
2023/07/05 08:21:27;;;;;;;5.80;1.52;;;20.50;23.00;;;;;;5050592;28;20385;-69
2023/07/05 08:23:52;;;;;;;6.80;1.80;;;21.40;99.90;;;;;;5049741;28;20444;-69
2023/07/05 08:26:18;;;;;;;7.97;2.20;;;21.60;1.00;;;;;;5049219;28;20865;-69
2023/07/05 08:28:45;;;;;;;8.80;2.30;;;21.00;52.30;;;;;;5048752;28;20390;-68
2023/07/05 08:31:10;;;;;;;8.18;2.40;;;20.00;1.00;;;;;;5031130;28;20394;-68
2023/07/05 08:33:37;;;;;;;6.40;1.90;;;19.30;1.00;;;;;;5049122;28;20521;-68
2023/07/05 08:36:18;;;;;;;8.50;1.80;;;19.10;1.00;;;;;;5048915;28;20916;-69
2023/07/05 08:38:52;;;;;;;7.57;2.40;;;19.00;99.90;;;;;;5048920;28;20440;-68
2023/07/05 08:41:54;;;;;;;7.07;1.92;;;19.00;1.00;;;;;;5049117;28;20492;-68
2023/07/05 08:44:46;;;;;;;7.68;1.60;;;18.60;1.00;;;;;;5018268;28;20420;-68
2023/07/05 08:47:50;;;;;;;8.40;2.13;;;18.50;1.00;;;;;;5048262;28;20440;-69
2023/07/05 08:50:29;;;;;;;7.00;1.60;;;19.10;1.00;;;;;;4967694;28;20649;-69
2023/07/05 08:53:05;;;;;;;7.40;2.13;;;20.50;1.00;;;;;;5040961;28;20416;-68
2023/07/05 08:55:47;;;;;;;6.97;1.75;;;;;;;;;;5048653;28;20393;-69
2023/07/05 08:58:19;;;;;;;6.63;1.60;;;;;;;;;;5029675;28;20409;-68
2023/07/05 09:00:57;;;;;;;7.97;1.88;;;23.30;1.00;;;;;;5049319;28;20401;-69
2023/07/05 09:03:28;;;;;;;7.60;2.07;;;23.60;1.00;;;;;;5031141;28;20385;-69
2023/07/05 09:06:09;;;;;;;8.07;2.20;;;24.30;1.00;;;;;;5049194;28;20386;-69
2023/07/05 09:08:43;;;;;;;7.50;2.13;;;23.90;99.90;;;;;;5048007;28;20878;-70
2023/07/05 09:11:30;;;;;;;6.60;1.90;;;24.20;99.90;;;;;;5047819;28;20925;-69
2023/07/05 09:14:11;;;;;;;8.13;2.40;;;24.50;99.90;;;;;;5014481;28;20420;-69
2023/07/05 09:16:58;;;;;;;6.20;1.70;;;24.60;99.90;;;;;;5048119;28;20945;-69
2023/07/05 09:19:57;;;;;;;7.32;2.40;;;24.60;99.90;;;;;;5048924;28;20386;-69
2023/07/05 09:22:32;;;;;;;8.95;2.40;;;25.00;99.90;;;;;;5048719;28;20416;-70
2023/07/05 09:24:59;;;;;;;7.53;2.20;;;25.10;99.90;;;;;;5048172;28;20394;-70
2023/07/05 09:27:37;;;;;;;9.10;2.50;;;26.10;99.90;;;;;;5048427;28;20386;-70
2023/07/05 09:30:06;;;;;;;7.70;2.45;;;26.00;99.90;;;;;;5048368;28;20913;-69
2023/07/05 09:32:41;;;;;;;8.95;2.25;;;26.00;99.90;;;;;;5048533;28;20472;-70
2023/07/05 09:35:18;;;;;;;8.82;2.45;;;26.90;99.90;;;;;;5047750;28;20882;-70
2023/07/05 09:38:08;;;;;;;7.17;2.27;;;26.10;99.90;;;;;;5047964;28;20496;-70
2023/07/05 09:40:41;;;;;;;7.57;2.35;;;25.60;99.90;;;;;;5047750;28;20481;-69
2023/07/05 09:43:13;;;;;;;7.00;2.07;;;26.00;99.90;;;;;;5047876;28;20964;-69
2023/07/05 09:45:39;;;;;;;8.13;2.50;;;25.90;99.90;;;;;;5047947;28;20901;-70
2023/07/05 09:48:09;;;;;;;8.05;2.25;;;26.40;99.90;;;;;;5048032;28;20381;-70
2023/07/05 09:50:45;;;;;;;8.05;2.20;;;27.20;99.90;;;;;;5047679;28;20577;-70
2023/07/05 09:53:33;;;;;;;8.20;2.90;;;26.90;99.90;;;;;;5048016;28;20427;-69
2023/07/05 09:56:05;;;;;;;8.10;2.10;;;27.10;99.90;;;;;;5047740;28;20398;-70
2023/07/05 09:58:33;;;;;;;8.75;2.03;;;26.10;99.90;;;;;;5047808;28;20454;-70
2023/07/05 10:01:04;;;;;;;8.25;2.55;;;26.20;99.90;;;;;;5047923;28;20404;-70
2023/07/05 10:03:42;;;;;;;7.43;2.10;;;26.80;99.90;;;;;;5047521;28;20386;-70
2023/07/05 10:06:11;;;;;;;7.57;2.30;;;26.30;99.90;;;;;;5047630;28;20412;-70
2023/07/05 10:08:45;;;;;;;7.32;2.50;;;26.80;99.90;;;;;;5048180;28;20467;-70
2023/07/05 10:11:33;;;;;;;7.10;2.13;;;27.40;99.90;;;;;;5051279;28;20470;-70
2023/07/05 10:14:12;;;;;;;6.80;2.30;;;26.80;99.90;;;;;;5033296;28;20397;-70
2023/07/05 10:16:52;;;;;;;7.10;2.20;;;26.60;99.90;;;;;;5051400;28;20462;-70
2023/07/05 10:19:26;;;;;;;7.10;2.00;;;26.50;99.90;;;;;;5051243;28;20392;-69
2023/07/05 10:22:15;;;;;;;7.57;2.20;;;26.50;99.90;;;;;;5051689;28;20397;-70
2023/07/05 10:24:51;;;;;;;7.22;2.15;;;26.30;99.90;;;;;;5051014;28;20386;-70
2023/07/05 10:27:40;;;;;;;7.57;2.10;;;26.90;99.90;;;;;;5051321;28;20401;-69
2023/07/05 10:30:13;;;;;;;8.00;2.33;;;27.50;99.90;;;;;;5050912;28;20948;-69
2023/07/05 10:32:44;;;;;;;8.18;2.30;;;27.00;99.90;;;;;;5033356;28;20394;-69
2023/07/05 10:35:20;;;;;;;8.50;2.25;;;26.30;99.90;;;;;;5051155;28;20401;-68
2023/07/05 10:37:45;;;;;;;7.50;2.30;;;26.10;99.90;;;;;;5051119;28;20389;-69
2023/07/05 10:40:11;;;;;;;6.22;1.90;;;25.80;99.90;;;;;;5050627;28;20439;-68
2023/07/05 10:42:39;;;;;;;6.33;1.90;;;25.40;99.90;;;;;;5051136;28;20794;-68
2023/07/05 10:45:12;;;;;;;7.55;2.00;;;24.80;99.90;;;;;;5050646;28;20488;-69
2023/07/05 10:47:39;;;;;;;8.32;1.90;;;24.60;99.90;;;;;;5051182;28;20381;-68
2023/07/05 10:50:06;;;;;;;6.78;1.70;;;25.00;99.90;;;;;;5050692;28;20555;-68
2023/07/05 10:52:48;;;;;;;7.18;1.92;;;24.60;99.90;;;;;;5050982;28;20852;-69
2023/07/05 10:55:24;;;;;;;6.00;1.55;;;24.50;99.90;;;;;;5050948;28;20393;-68
2023/07/05 10:58:09;;;;;;;7.17;2.00;;;24.30;99.90;;;;;;5051603;28;20389;-68
2023/07/05 11:00:45;;;;;;;7.10;1.88;;;24.20;99.90;;;;;;5057587;28;20391;-68
2023/07/05 11:03:49;;;;;;;6.03;1.40;;;24.50;99.90;;;;;;5051848;28;20382;-69
2023/07/05 11:06:16;;;;;;;6.10;1.60;;;24.70;99.90;;;;;;5046456;28;20492;-69
2023/07/05 11:08:43;;;;;;;6.25;1.60;;;24.80;99.90;;;;;;5050577;28;20439;-69
2023/07/05 11:11:20;;;;;;;7.05;1.67;;;24.80;99.90;;;;;;5050700;28;20466;-68
2023/07/05 11:13:47;;;;;;;6.15;1.60;;;24.60;99.90;;;;;;5051407;28;20731;-68
2023/07/05 11:16:19;;;;;;;7.40;1.70;;;24.50;99.90;;;;;;5051155;28;20392;-69
2023/07/05 11:18:46;;;;;;;7.15;1.45;;;24.50;99.90;;;;;;5051176;28;20765;-68
2023/07/05 11:21:34;;;;;;;6.33;1.80;;;24.10;99.90;;;;;;5049657;28;20394;-69
2023/07/05 11:23:59;;;;;;;7.03;1.80;;;24.10;99.90;;;;;;5049942;28;20743;-68
2023/07/05 11:26:34;;;;;;;6.30;1.60;;;24.00;99.90;;;;;;5050542;28;20385;-68
2023/07/05 11:29:25;;;;;;;7.18;1.70;;;24.00;99.90;;;;;;5032418;28;20421;-69
2023/07/05 11:31:53;;;;;;;6.43;1.33;;;24.10;99.90;;;;;;5050749;28;20400;-69
2023/07/05 11:34:24;;;;;;;5.85;1.52;;;24.30;99.90;;;;;;5050779;28;20385;-69
2023/07/05 11:36:53;;;;;;;6.50;1.40;;;24.00;99.90;;;;;;5049998;28;20484;-69
2023/07/05 11:39:34;;;;;;;7.60;2.00;;;24.20;99.90;;;;;;5050009;28;20405;-69
2023/07/05 11:42:12;;;;;;;5.95;1.30;;;24.30;99.90;;;;;;5049964;28;20413;-69
2023/07/05 11:44:48;;;;;;;6.30;1.60;;;24.70;99.90;;;;;;5050512;28;20484;-69
2023/07/05 11:47:23;;;;;;;7.03;1.70;;;24.80;99.90;;;;;;5049783;28;20397;-69
2023/07/05 11:50:01;;;;;;;5.38;1.20;;;24.60;99.90;;;;;;5049969;28;20486;-69
2023/07/05 11:52:32;;;;;;;6.00;1.40;;;24.10;99.90;;;;;;5049764;28;20487;-69
2023/07/05 11:55:14;;;;;;;6.50;1.83;;;24.00;99.90;;;;;;5049890;28;20393;-70
2023/07/05 11:58:01;;;;;;;6.15;1.50;;;24.10;99.90;;;;;;5050425;28;20388;-69
2023/07/05 12:00:27;;;;;;;8.60;1.53;;;24.50;99.90;;;;;;5049770;28;20473;-69
2023/07/05 12:03:13;;;;;;;7.03;1.30;;;25.00;99.90;;;;;;5050291;28;20476;-69
2023/07/05 12:05:40;;;;;;;7.50;1.90;;;24.70;99.90;;;;;;5049205;28;20857;-69
2023/07/05 12:08:06;;;;;;;6.20;1.40;;;24.30;99.90;;;;;;5049417;28;20919;-69
2023/07/05 12:10:34;;;;;;;6.50;1.70;;;24.30;99.90;;;;;;5031416;28;20492;-69
2023/07/05 12:13:00;;;;;;;6.72;1.60;;;24.20;99.90;;;;;;5049235;28;20393;-69
2023/07/05 12:15:27;;;;;;;7.43;1.80;;;24.00;99.90;;;;;;5049741;28;20797;-70
2023/07/05 12:17:53;;;;;;;6.45;1.73;;;24.60;99.90;;;;;;5049751;28;20432;-68
2023/07/05 12:20:38;;;;;;;6.70;1.70;;;24.50;99.90;;;;;;5049176;28;20433;-68
2023/07/05 12:23:07;;;;;;;10.20;1.70;;;24.10;99.90;;;;;;5049058;28;20939;-69
2023/07/05 12:25:34;;;;;;;8.50;1.30;;;24.10;99.90;;;;;;5049329;28;20393;-69
2023/07/05 12:28:02;;;;;;;6.20;1.60;;;24.20;99.90;;;;;;5049127;28;20400;-68
2023/07/05 12:30:28;;;;;;;6.38;1.70;;;24.10;99.90;;;;;;5049117;28;20918;-68
2023/07/05 12:32:57;;;;;;;6.50;1.70;;;23.60;99.90;;;;;;5048397;28;20393;-69
2023/07/05 12:35:25;;;;;;;11.60;1.60;;;23.80;99.90;;;;;;5049820;28;20419;-68
2023/07/05 12:37:53;;;;;;;6.40;1.40;;;24.10;99.90;;;;;;5049600;28;20385;-68
2023/07/05 12:40:32;;;;;;;6.05;1.30;;;24.40;99.90;;;;;;5048299;28;20402;-68
2023/07/05 12:43:00;;;;;;;5.40;1.27;;;24.90;99.90;;;;;;5048679;28;20453;-69
2023/07/05 12:45:40;;;;;;;6.68;1.23;;;24.90;99.90;;;;;;5049049;28;20772;-68
2023/07/05 12:48:25;;;;;;;6.05;1.10;;;24.50;99.90;;;;;;5048944;28;20477;-69
2023/07/05 12:51:21;;;;;;;5.25;1.10;;;24.10;99.90;;;;;;5048934;28;20812;-68
2023/07/05 12:53:48;;;;;;;5.75;1.30;;;23.80;99.90;;;;;;5021089;28;20400;-68
2023/07/05 12:56:17;;;;;;;5.87;1.17;;;23.80;99.90;;;;;;5048597;28;20397;-69
2023/07/05 12:59:05;;;;;;;5.95;1.10;;;24.00;99.90;;;;;;5048692;28;20393;-69
2023/07/05 13:01:40;;;;;;;6.28;1.52;;;24.10;99.90;;;;;;5048531;28;20386;-70
2023/07/05 13:04:12;;;;;;;6.07;1.40;;;23.60;99.90;;;;;;5048635;28;20386;-69
2023/07/05 13:06:38;;;;;;;6.28;1.23;;;23.90;99.90;;;;;;5048831;28;20744;-69
2023/07/05 13:09:04;;;;;;;7.50;1.30;;;24.10;99.90;;;;;;5048802;28;20402;-69
2023/07/05 13:11:30;;;;;;;6.35;1.30;;;24.20;99.90;;;;;;5048423;28;20767;-69